Terminal Aerodrome Forecast
Issued by NWS

Home | Current Version | Previous Version | Text Only | Print | Product List | Glossary On
Versions: 1 2 3 4 5 6 7 8 9 10 11 12 13 14
000
FTAK31 PAJN 231734
TAFAJN
TAF
PAJN 231734Z 2318/2418 09010G17KT 6SM -RA BR FEW008 BKN025 OVC040
     FM232100 10012KT P6SM -RA SCT020 BKN030 OVC050
     FM240300 10010KT P6SM -RA BKN025 OVC040
     FM240900 07005KT 6SM -RA BR BKN007 OVC012=

USA.gov is the U.S. government's official web portal to all federal, state and local government web resources and services.